createdAt,value
2018-11-10T00:01:40.070Z,8.71
2018-11-10T00:04:08.645Z,8.67
2018-11-10T00:06:37.157Z,8.69
2018-11-10T00:09:06.705Z,8.74
2018-11-10T00:11:35.204Z,8.70
2018-11-10T00:14:03.968Z,8.71
2018-11-10T00:16:32.581Z,8.75
2018-11-10T00:19:01.074Z,8.70
2018-11-10T00:21:29.557Z,8.68
2018-11-10T00:23:58.294Z,8.69
2018-11-10T00:26:26.770Z,8.75
2018-11-10T00:28:55.278Z,8.83
2018-11-10T00:31:23.857Z,8.85
2018-11-10T00:33:52.351Z,8.90
2018-11-10T00:36:20.917Z,8.86
2018-11-10T00:38:49.442Z,8.88
2018-11-10T00:41:18.054Z,8.89
2018-11-10T00:43:46.698Z,8.82
2018-11-10T00:46:15.235Z,8.81
2018-11-10T00:48:44.267Z,8.82
2018-11-10T00:51:12.828Z,8.87
2018-11-10T00:53:41.335Z,8.88
2018-11-10T00:56:09.912Z,8.82
2018-11-10T00:58:38.437Z,8.84
2018-11-10T01:01:07.002Z,8.83
2018-11-10T01:03:35.557Z,8.84
2018-11-10T01:06:04.086Z,8.81
2018-11-10T01:08:32.593Z,8.84
2018-11-10T01:11:01.135Z,8.86
2018-11-10T01:13:29.617Z,8.84
2018-11-10T01:15:58.779Z,8.85
2018-11-10T01:18:27.593Z,8.87
2018-11-10T01:20:56.086Z,8.88
2018-11-10T01:23:24.646Z,8.90
2018-11-10T01:25:53.178Z,8.95
2018-11-10T01:28:21.737Z,8.95
2018-11-10T01:30:50.880Z,8.95
2018-11-10T01:33:22.394Z,9.02
2018-11-10T01:35:50.957Z,9.03
2018-11-10T01:38:19.499Z,9.03
2018-11-10T01:40:48.050Z,9.01
2018-11-10T01:43:16.591Z,9.04
2018-11-10T01:45:45.251Z,9.09
2018-11-10T01:48:13.799Z,9.12
2018-11-10T01:50:42.362Z,9.14
2018-11-10T01:53:10.975Z,9.11
2018-11-10T01:55:39.473Z,9.21
2018-11-10T01:58:07.973Z,9.24
2018-11-10T02:00:36.483Z,9.28
2018-11-10T02:03:05.186Z,9.23
2018-11-10T02:05:33.709Z,9.23
2018-11-10T02:08:02.284Z,9.27
2018-11-10T02:10:30.879Z,9.31
2018-11-10T02:12:59.401Z,9.38
2018-11-10T02:15:27.885Z,9.40
2018-11-10T02:17:56.465Z,9.39
2018-11-10T02:20:25.199Z,9.40
2018-11-10T02:22:53.785Z,9.46
2018-11-10T02:25:22.345Z,9.48
2018-11-10T02:27:51.659Z,9.48
2018-11-10T02:30:20.858Z,9.46
2018-11-10T02:32:49.965Z,9.47
2018-11-10T02:35:18.535Z,9.49
2018-11-10T02:37:47.035Z,9.50
2018-11-10T02:40:19.000Z,9.54
2018-11-10T02:42:47.473Z,9.54
2018-11-10T02:45:16.219Z,9.60
2018-11-10T02:47:46.129Z,9.63
2018-11-10T02:50:14.778Z,9.65
2018-11-10T02:52:43.294Z,9.73
2018-11-10T02:55:12.231Z,9.69
2018-11-10T02:57:41.245Z,9.68
2018-11-10T03:00:11.079Z,9.75
2018-11-10T03:02:39.716Z,9.74
2018-11-10T03:05:08.957Z,9.75
2018-11-10T03:07:38.130Z,9.79
2018-11-10T03:10:07.668Z,9.84
2018-11-10T03:12:36.330Z,9.83
2018-11-10T03:15:05.285Z,9.81
2018-11-10T03:17:33.812Z,9.89
2018-11-10T03:20:02.363Z,9.82
2018-11-10T03:22:30.985Z,9.83
2018-11-10T03:24:59.495Z,9.85
2018-11-10T03:27:28.231Z,9.86
2018-11-10T03:29:57.350Z,9.88
2018-11-10T03:32:25.866Z,9.82
2018-11-10T03:34:54.361Z,9.78
2018-11-10T03:37:22.924Z,9.75
2018-11-10T03:39:51.417Z,9.69
2018-11-10T03:42:19.946Z,9.69
2018-11-10T03:44:48.732Z,9.74
2018-11-10T03:47:17.264Z,9.80
2018-11-10T03:49:45.823Z,9.82
2018-11-10T03:52:14.323Z,9.84
2018-11-10T03:54:42.817Z,9.87
2018-11-10T03:57:11.380Z,9.90
2018-11-10T03:59:39.955Z,9.94
2018-11-10T04:02:08.626Z,10.00
2018-11-10T04:04:37.153Z,10.01
2018-11-10T04:07:05.761Z,10.06
2018-11-10T04:09:34.246Z,10.14
2018-11-10T04:12:02.773Z,10.18
2018-11-10T04:14:31.298Z,10.23
2018-11-10T04:16:59.849Z,10.26
2018-11-10T04:19:29.405Z,10.26
2018-11-10T04:21:58.047Z,10.32
2018-11-10T04:24:26.533Z,10.40
2018-11-10T04:26:55.221Z,10.40
2018-11-10T04:29:23.768Z,10.45
2018-11-10T04:31:52.254Z,10.46
2018-11-10T04:34:20.867Z,10.52
2018-11-10T04:36:49.466Z,10.52
2018-11-10T04:39:17.933Z,10.53
2018-11-10T04:41:46.457Z,10.52
2018-11-10T04:44:15.015Z,10.43
2018-11-10T04:46:43.564Z,10.54
2018-11-10T04:49:12.054Z,10.57
2018-11-10T04:51:41.562Z,10.58
2018-11-10T04:54:10.127Z,10.60
2018-11-10T04:56:38.748Z,10.61
2018-11-10T04:59:08.007Z,10.65
2018-11-10T05:01:36.684Z,10.78
2018-11-10T05:04:05.547Z,10.83
2018-11-10T05:06:34.202Z,10.81
2018-11-10T05:09:02.786Z,10.86
2018-11-10T05:11:31.351Z,10.86
2018-11-10T05:13:59.856Z,10.91
2018-11-10T05:16:28.425Z,10.89
2018-11-10T05:18:57.112Z,10.90
2018-11-10T05:21:25.734Z,11.02
2018-11-10T05:23:54.270Z,11.03
2018-11-10T05:26:22.840Z,11.02
2018-11-10T05:28:51.347Z,11.02
2018-11-10T05:31:20.035Z,11.00
2018-11-10T05:33:48.535Z,11.07
2018-11-10T05:36:17.101Z,11.08
2018-11-10T05:38:45.678Z,11.13
2018-11-10T05:41:14.241Z,11.12
2018-11-10T05:43:42.833Z,11.20
2018-11-10T05:46:11.357Z,11.20
2018-11-10T05:48:39.881Z,11.18
2018-11-10T05:51:08.397Z,11.23
2018-11-10T05:53:51.622Z,11.25
2018-11-10T05:56:20.118Z,11.26
2018-11-10T05:58:48.671Z,11.27
2018-11-10T06:01:17.285Z,11.26
2018-11-10T06:03:45.784Z,11.25
2018-11-10T06:06:14.306Z,11.15
2018-11-10T06:08:42.803Z,11.13
2018-11-10T06:11:11.334Z,11.11
2018-11-10T06:13:39.821Z,11.05
2018-11-10T06:16:08.366Z,11.00
2018-11-10T06:18:36.957Z,10.97
2018-11-10T06:21:05.717Z,10.98
2018-11-10T06:23:34.271Z,10.97
2018-11-10T06:26:02.948Z,10.93
2018-11-10T06:28:31.582Z,10.92
2018-11-10T06:31:00.150Z,10.90
2018-11-10T06:33:28.765Z,10.89
2018-11-10T06:35:57.359Z,10.88
2018-11-10T06:38:26.030Z,10.87
2018-11-10T06:40:54.558Z,10.94
2018-11-10T06:43:23.245Z,10.95
2018-11-10T06:45:51.821Z,10.99
2018-11-10T06:48:20.403Z,11.00
2018-11-10T06:50:48.972Z,11.10
2018-11-10T06:53:17.517Z,11.12
2018-11-10T06:55:46.063Z,11.14
2018-11-10T06:58:14.722Z,11.17
2018-11-10T07:00:43.300Z,11.21
2018-11-10T07:03:11.864Z,11.33
2018-11-10T07:05:40.457Z,11.35
2018-11-10T07:08:08.971Z,11.39
2018-11-10T07:10:37.556Z,11.42
2018-11-10T07:13:06.514Z,11.40
2018-11-10T07:15:35.061Z,11.37
2018-11-10T07:18:03.595Z,11.36
2018-11-10T07:20:32.157Z,11.38
2018-11-10T07:23:01.007Z,11.44
2018-11-10T07:25:29.555Z,11.49
2018-11-10T07:27:58.233Z,11.53
2018-11-10T07:30:26.782Z,11.68
2018-11-10T07:32:55.459Z,11.84
2018-11-10T07:35:23.982Z,11.94
2018-11-10T07:37:52.665Z,12.06
2018-11-10T07:40:21.355Z,12.14
2018-11-10T07:42:50.000Z,12.16
2018-11-10T07:45:18.545Z,12.28
2018-11-10T07:47:47.099Z,12.35
2018-11-10T07:50:15.633Z,12.53
2018-11-10T07:52:44.295Z,12.60
2018-11-10T07:55:14.123Z,12.70
2018-11-10T07:57:42.756Z,12.71
2018-11-10T08:00:14.032Z,12.75
2018-11-10T08:02:42.598Z,12.86
2018-11-10T08:05:11.698Z,12.95
2018-11-10T08:07:41.376Z,13.00
2018-11-10T08:10:10.479Z,13.03
2018-11-10T08:12:39.081Z,13.03
2018-11-10T08:15:10.904Z,13.08
2018-11-10T08:17:39.825Z,13.08
2018-11-10T08:20:08.796Z,13.06
2018-11-10T08:22:37.495Z,13.03
2018-11-10T08:25:07.643Z,12.97
2018-11-10T08:27:36.155Z,12.96
2018-11-10T08:30:05.824Z,12.89
2018-11-10T08:32:34.329Z,12.84
2018-11-10T08:35:02.824Z,12.84
2018-11-10T08:37:31.518Z,12.81
2018-11-10T08:40:00.071Z,12.93
2018-11-10T08:42:28.625Z,12.92
2018-11-10T08:44:57.199Z,12.94
2018-11-10T08:47:25.809Z,13.02
2018-11-10T08:49:54.318Z,13.03
2018-11-10T08:52:22.977Z,12.97
2018-11-10T08:54:51.523Z,13.04
2018-11-10T08:57:20.264Z,13.10
2018-11-10T08:59:48.837Z,13.13
2018-11-10T09:02:17.398Z,13.19
2018-11-10T09:04:46.250Z,13.20
2018-11-10T09:07:14.784Z,13.23
2018-11-10T09:09:43.364Z,13.20
2018-11-10T09:12:12.015Z,13.17
2018-11-10T09:14:40.561Z,13.12
2018-11-10T09:17:09.441Z,13.16
2018-11-10T09:19:38.104Z,13.21
2018-11-10T09:22:07.594Z,13.30
2018-11-10T09:24:36.407Z,13.32
2018-11-10T09:27:05.217Z,13.20
2018-11-10T09:29:33.742Z,13.19
2018-11-10T09:32:02.305Z,13.16
2018-11-10T09:34:30.841Z,13.25
2018-11-10T09:36:59.536Z,13.34
2018-11-10T09:39:28.101Z,13.32
2018-11-10T09:41:56.941Z,13.36
2018-11-10T09:44:26.130Z,13.28
2018-11-10T09:46:54.717Z,13.18
2018-11-10T09:49:23.302Z,13.22
2018-11-10T09:51:51.886Z,13.28
2018-11-10T09:54:20.608Z,13.43
2018-11-10T09:56:49.085Z,13.39
2018-11-10T09:59:17.684Z,13.40
2018-11-10T10:01:46.446Z,13.53
2018-11-10T10:04:14.935Z,13.47
2018-11-10T10:06:43.443Z,13.56
2018-11-10T10:09:12.382Z,13.42
2018-11-10T10:11:41.397Z,13.48
2018-11-10T10:14:10.679Z,13.48
2018-11-10T10:16:39.565Z,13.41
2018-11-10T10:19:08.967Z,13.38
2018-11-10T10:21:37.764Z,13.42
2018-11-10T10:24:06.806Z,13.45
2018-11-10T10:26:35.290Z,13.51
2018-11-10T10:29:03.905Z,13.43
2018-11-10T10:31:32.747Z,13.45
2018-11-10T10:34:01.519Z,13.51
2018-11-10T10:36:30.078Z,13.52
2018-11-10T10:38:58.669Z,13.68
2018-11-10T10:41:27.169Z,13.74
2018-11-10T10:43:55.958Z,13.89
2018-11-10T10:46:24.445Z,13.86
2018-11-10T10:48:53.130Z,14.12
2018-11-10T10:51:21.652Z,14.20
2018-11-10T10:53:50.406Z,14.09
2018-11-10T10:56:19.167Z,13.96
2018-11-10T10:58:47.726Z,14.05
2018-11-10T11:01:21.650Z,13.93
2018-11-10T11:03:51.027Z,14.01
2018-11-10T11:06:19.521Z,14.08
2018-11-10T11:08:48.182Z,14.10
2018-11-10T11:11:16.709Z,13.95
2018-11-10T11:13:45.353Z,14.12
2018-11-10T11:16:14.263Z,13.99
2018-11-10T11:18:42.953Z,14.10
2018-11-10T11:21:11.636Z,14.02
2018-11-10T11:23:40.123Z,13.97
2018-11-10T11:26:08.709Z,13.90
2018-11-10T11:28:37.590Z,13.76
2018-11-10T11:31:06.398Z,13.85
2018-11-10T11:33:35.139Z,13.75
2018-11-10T11:36:04.079Z,13.90
2018-11-10T11:38:33.429Z,14.02
2018-11-10T11:41:01.981Z,14.19
2018-11-10T11:43:30.554Z,14.11
2018-11-10T11:45:59.810Z,14.20
2018-11-10T11:48:29.217Z,14.13
2018-11-10T11:50:58.074Z,14.05
2018-11-10T11:53:27.145Z,13.82
2018-11-10T11:55:55.770Z,13.69
2018-11-10T11:58:24.446Z,13.48
2018-11-10T12:00:53.023Z,13.63
2018-11-10T12:03:21.652Z,13.43
2018-11-10T12:05:50.162Z,13.36
2018-11-10T12:08:18.782Z,13.32
2018-11-10T12:10:47.315Z,13.39
2018-11-10T12:13:15.924Z,13.21
2018-11-10T12:15:44.445Z,13.27
2018-11-10T12:18:13.191Z,13.24
2018-11-10T12:20:41.754Z,13.18
2018-11-10T12:23:10.264Z,13.20
2018-11-10T12:25:38.864Z,13.25
2018-11-10T12:28:07.518Z,13.41
2018-11-10T12:30:36.093Z,13.50
2018-11-10T12:33:04.918Z,13.44
2018-11-10T12:35:33.397Z,13.53
2018-11-10T12:38:02.730Z,13.59
2018-11-10T12:40:31.543Z,13.46
2018-11-10T12:43:00.396Z,13.49
2018-11-10T12:45:28.885Z,13.54
2018-11-10T12:47:57.356Z,13.53
2018-11-10T12:50:25.926Z,13.24
2018-11-10T12:52:54.429Z,13.29
2018-11-10T12:55:23.589Z,13.26
2018-11-10T12:57:52.352Z,13.25
2018-11-10T13:00:20.934Z,13.20
2018-11-10T13:02:49.524Z,13.11
2018-11-10T13:05:18.136Z,13.11
2018-11-10T13:07:47.566Z,13.16
2018-11-10T13:10:16.233Z,13.10
2018-11-10T13:12:45.193Z,13.17
2018-11-10T13:15:13.837Z,13.10
2018-11-10T13:17:42.660Z,13.18
2018-11-10T13:20:13.718Z,13.25
2018-11-10T13:22:42.302Z,13.32
2018-11-10T13:25:11.955Z,13.41
2018-11-10T13:27:40.598Z,13.43
2018-11-10T13:30:11.002Z,13.43
2018-11-10T13:32:39.611Z,13.40
2018-11-10T13:35:09.536Z,13.44
2018-11-10T13:37:38.318Z,13.38
2018-11-10T13:40:07.781Z,13.50
2018-11-10T13:42:36.476Z,13.62
2018-11-10T13:45:05.585Z,13.57
2018-11-10T13:47:34.390Z,13.58
2018-11-10T13:50:03.491Z,13.56
2018-11-10T13:52:32.437Z,13.51
2018-11-10T13:55:00.824Z,13.49
2018-11-10T13:57:29.430Z,13.57
2018-11-10T13:59:57.980Z,13.52
2018-11-10T14:02:26.930Z,13.57
2018-11-10T14:04:55.540Z,13.60
2018-11-10T14:07:24.272Z,13.59
2018-11-10T14:09:52.989Z,13.62
2018-11-10T14:12:21.689Z,13.61
2018-11-10T14:14:50.197Z,13.61
2018-11-10T14:17:18.794Z,13.61
2018-11-10T14:19:47.440Z,13.59
2018-11-10T14:22:15.957Z,13.51
2018-11-10T14:24:44.565Z,13.60
2018-11-10T14:27:13.102Z,13.62
2018-11-10T14:29:41.589Z,13.57
2018-11-10T14:32:10.214Z,13.49
2018-11-10T14:34:38.718Z,13.38
2018-11-10T14:37:07.241Z,13.33
2018-11-10T14:39:35.785Z,13.29
2018-11-10T14:42:04.300Z,13.29
2018-11-10T14:44:32.871Z,13.18
2018-11-10T14:47:01.429Z,13.17
2018-11-10T14:49:29.921Z,13.10
2018-11-10T14:51:59.431Z,13.14
2018-11-10T14:54:28.022Z,13.07
2018-11-10T14:56:56.638Z,13.09
2018-11-10T14:59:25.268Z,13.01
2018-11-10T15:01:54.125Z,12.97
2018-11-10T15:04:22.633Z,12.91
2018-11-10T15:06:51.312Z,12.87
2018-11-10T15:09:19.905Z,12.90
2018-11-10T15:11:48.791Z,12.88
2018-11-10T15:14:17.405Z,12.82
2018-11-10T15:16:46.021Z,12.77
2018-11-10T15:19:14.641Z,12.73
2018-11-10T15:21:43.286Z,12.71
2018-11-10T15:24:11.878Z,12.62
2018-11-10T15:26:40.509Z,12.59
2018-11-10T15:29:09.113Z,12.61
2018-11-10T15:31:37.781Z,12.63
2018-11-10T15:34:06.756Z,12.60
2018-11-10T15:36:35.337Z,12.53
2018-11-10T15:39:05.031Z,12.50
2018-11-10T15:41:33.733Z,12.49
2018-11-10T15:44:02.273Z,12.47
2018-11-10T15:46:30.849Z,12.50
2018-11-10T15:48:59.690Z,12.51
2018-11-10T15:51:28.489Z,12.53
2018-11-10T15:53:57.185Z,12.46
2018-11-10T15:56:26.350Z,12.45
2018-11-10T15:58:54.946Z,12.48
2018-11-10T16:01:23.547Z,12.47
2018-11-10T16:03:52.186Z,12.44
2018-11-10T16:06:20.815Z,12.41
2018-11-10T16:08:51.456Z,12.41
2018-11-10T16:11:20.588Z,12.42
2018-11-10T16:13:49.420Z,12.43
2018-11-10T16:16:18.236Z,12.44
2018-11-10T16:18:47.754Z,12.48
2018-11-10T16:21:16.377Z,12.41
2018-11-10T16:23:45.019Z,12.45
2018-11-10T16:26:13.535Z,12.48
2018-11-10T16:28:42.231Z,12.43
2018-11-10T16:31:10.769Z,12.41
2018-11-10T16:33:39.498Z,12.39
2018-11-10T16:36:08.210Z,12.42
2018-11-10T16:38:37.073Z,12.37
2018-11-10T16:41:05.977Z,12.43
2018-11-10T16:43:34.556Z,12.43
2018-11-10T16:46:03.142Z,12.39
2018-11-10T16:48:31.717Z,12.39
2018-11-10T16:51:00.262Z,12.46
2018-11-10T16:53:28.918Z,12.42
2018-11-10T16:55:57.498Z,12.36
2018-11-10T16:58:25.993Z,12.37
2018-11-10T17:00:54.565Z,12.39
2018-11-10T17:03:23.208Z,12.43
2018-11-10T17:05:51.776Z,12.46
2018-11-10T17:08:20.293Z,12.33
2018-11-10T17:10:48.946Z,12.30
2018-11-10T17:13:17.535Z,12.29
2018-11-10T17:15:46.051Z,12.30
2018-11-10T17:18:14.566Z,12.32
2018-11-10T17:20:43.109Z,12.36
2018-11-10T17:23:11.689Z,12.41
2018-11-10T17:25:40.172Z,12.43
2018-11-10T17:28:08.764Z,12.44
2018-11-10T17:30:37.387Z,12.42
2018-11-10T17:33:05.905Z,12.42
2018-11-10T17:35:34.507Z,12.39
2018-11-10T17:38:03.178Z,12.41
2018-11-10T17:40:31.653Z,12.44
2018-11-10T17:43:00.174Z,12.49
2018-11-10T17:45:28.694Z,12.52
2018-11-10T17:47:57.206Z,12.50
2018-11-10T17:50:25.722Z,12.50
2018-11-10T17:52:54.332Z,12.46
2018-11-10T17:55:22.861Z,12.49
2018-11-10T17:57:51.514Z,12.37
2018-11-10T18:00:20.049Z,12.29
2018-11-10T18:02:48.571Z,12.30
2018-11-10T18:05:17.437Z,12.36
2018-11-10T18:07:46.362Z,12.40
2018-11-10T18:10:16.235Z,12.43
2018-11-10T18:12:45.347Z,12.43
2018-11-10T18:15:14.269Z,12.47
2018-11-10T18:17:43.166Z,12.51
2018-11-10T18:20:13.182Z,12.49
2018-11-10T18:22:41.730Z,12.44
2018-11-10T18:25:10.420Z,12.50
2018-11-10T18:27:38.981Z,12.56
2018-11-10T18:30:10.157Z,12.55
2018-11-10T18:32:38.876Z,12.49
2018-11-10T18:35:08.987Z,12.53
2018-11-10T18:37:37.513Z,12.56
2018-11-10T18:40:06.188Z,12.54
2018-11-10T18:42:34.789Z,12.49
2018-11-10T18:45:03.305Z,12.54
2018-11-10T18:47:31.959Z,12.48
2018-11-10T18:50:00.745Z,12.50
2018-11-10T18:52:29.428Z,12.53
2018-11-10T18:54:57.947Z,12.54
2018-11-10T18:57:26.591Z,12.59
2018-11-10T18:59:55.164Z,12.57
2018-11-10T19:02:23.673Z,12.57
2018-11-10T19:04:52.275Z,12.53
2018-11-10T19:07:20.873Z,12.57
2018-11-10T19:09:49.673Z,12.58
2018-11-10T19:12:18.369Z,12.58
2018-11-10T19:14:46.939Z,12.57
2018-11-10T19:17:15.625Z,12.58
2018-11-10T19:19:44.273Z,12.59
2018-11-10T19:22:13.118Z,12.62
2018-11-10T19:24:41.704Z,12.58
2018-11-10T19:27:10.267Z,12.61
2018-11-10T19:29:38.928Z,12.58
2018-11-10T19:32:07.552Z,12.56
2018-11-10T19:34:36.522Z,12.49
2018-11-10T19:37:05.273Z,12.41
2018-11-10T19:39:33.991Z,12.37
2018-11-10T19:42:02.756Z,12.41
2018-11-10T19:44:31.281Z,12.42
2018-11-10T19:47:00.011Z,12.49
2018-11-10T19:49:28.629Z,12.55
2018-11-10T19:51:57.277Z,12.55
2018-11-10T19:54:25.785Z,12.59
2018-11-10T19:56:54.307Z,12.60
2018-11-10T19:59:22.946Z,12.63
2018-11-10T20:01:51.603Z,12.62
2018-11-10T20:04:20.107Z,12.72
2018-11-10T20:06:48.749Z,12.73
2018-11-10T20:09:17.519Z,12.72
2018-11-10T20:11:46.174Z,12.68
2018-11-10T20:14:15.052Z,12.67
2018-11-10T20:16:43.734Z,12.70
2018-11-10T20:19:12.358Z,12.76
2018-11-10T20:21:40.858Z,12.72
2018-11-10T20:24:09.378Z,12.73
2018-11-10T20:26:38.036Z,12.73
2018-11-10T20:29:07.098Z,12.76
2018-11-10T20:31:35.739Z,12.75
2018-11-10T20:34:04.326Z,12.71
2018-11-10T20:36:32.942Z,12.70
2018-11-10T20:39:01.694Z,12.74
2018-11-10T20:41:30.359Z,12.72
2018-11-10T20:43:58.915Z,12.80
2018-11-10T20:46:27.561Z,12.80
2018-11-10T20:48:56.497Z,12.74
2018-11-10T20:51:25.135Z,12.76
2018-11-10T20:53:53.647Z,12.76
2018-11-10T20:56:22.202Z,12.80
2018-11-10T20:58:50.849Z,12.80
2018-11-10T21:01:19.505Z,12.81
2018-11-10T21:03:48.037Z,12.80
2018-11-10T21:06:16.715Z,12.79
2018-11-10T21:08:45.293Z,12.76
2018-11-10T21:11:13.787Z,12.72
2018-11-10T21:13:42.327Z,12.71
2018-11-10T21:16:11.243Z,12.70
2018-11-10T21:18:40.734Z,12.71
2018-11-10T21:21:09.313Z,12.74
2018-11-10T21:23:37.963Z,12.74
2018-11-10T21:26:06.527Z,12.71
2018-11-10T21:28:35.137Z,12.70
2018-11-10T21:31:03.802Z,12.69
2018-11-10T21:33:32.592Z,12.72
2018-11-10T21:36:01.153Z,12.81
2018-11-10T21:38:29.773Z,12.79
2018-11-10T21:40:58.350Z,12.76
2018-11-10T21:43:27.404Z,12.81
2018-11-10T21:45:56.361Z,12.77
2018-11-10T21:48:29.582Z,12.89
2018-11-10T21:50:58.589Z,12.86
2018-11-10T21:53:27.299Z,12.92
2018-11-10T21:55:55.971Z,12.95
2018-11-10T21:58:24.929Z,12.90
2018-11-10T22:00:53.718Z,12.89
2018-11-10T22:03:22.527Z,12.94
2018-11-10T22:05:51.272Z,12.88
2018-11-10T22:08:20.320Z,12.86
2018-11-10T22:10:49.218Z,12.81
2018-11-10T22:13:18.103Z,12.80
2018-11-10T22:15:46.635Z,12.81
2018-11-10T22:18:15.131Z,12.79
2018-11-10T22:20:43.690Z,12.78
2018-11-10T22:23:12.341Z,12.82
2018-11-10T22:25:40.830Z,12.82
2018-11-10T22:28:09.337Z,12.74
2018-11-10T22:30:37.834Z,12.73
2018-11-10T22:33:06.464Z,12.74
2018-11-10T22:35:35.066Z,12.67
2018-11-10T22:38:03.602Z,12.69
2018-11-10T22:40:32.134Z,12.69
2018-11-10T22:43:00.686Z,12.64
2018-11-10T22:45:29.193Z,12.61
2018-11-10T22:47:57.840Z,12.60
2018-11-10T22:50:26.354Z,12.56
2018-11-10T22:52:54.857Z,12.53
2018-11-10T22:55:23.557Z,12.50
2018-11-10T22:57:52.078Z,12.53
2018-11-10T23:00:24.102Z,12.52
2018-11-10T23:02:53.835Z,12.47
2018-11-10T23:05:22.912Z,12.55
2018-11-10T23:07:51.469Z,12.45
2018-11-10T23:10:20.273Z,12.36
2018-11-10T23:12:49.915Z,12.29
2018-11-10T23:15:18.498Z,12.32
2018-11-10T23:17:47.077Z,12.27
2018-11-10T23:20:17.110Z,12.27
2018-11-10T23:22:45.667Z,12.21
2018-11-10T23:25:15.310Z,12.24
2018-11-10T23:27:43.883Z,12.20
2018-11-10T23:30:14.992Z,12.15
2018-11-10T23:32:43.522Z,12.21
2018-11-10T23:35:12.464Z,12.05
2018-11-10T23:37:41.222Z,11.97
2018-11-10T23:40:11.689Z,12.07
2018-11-10T23:42:40.853Z,12.07
2018-11-10T23:45:09.550Z,12.12
2018-11-10T23:47:38.642Z,12.17
2018-11-10T23:50:08.482Z,12.15
2018-11-10T23:52:37.125Z,12.10
2018-11-10T23:55:06.031Z,12.06
2018-11-10T23:57:34.629Z,12.04
